»·PEaware :: N701GT KSNA-KRDD

N701GT :: KSNA-KRDD

FLIGHT INFORMATION

Flight Status: Arrived
Operator: Privately registered:
United States
More flights under this callsign
Pilot: Anonymous 17564 (17564)
Aircraft: BEECH AIRCRAFT SUPER KING AIR 350
(B350)
More flights by this aircraft type
Origin: KSNA John Wayne-Orange Co
United States
Destination: KRDD Redding Mun
United States
More flights between these airports :: More routes between these airports
Route: MUSEL8 SLI V459 LHS RBL
File this flight plan on PilotEdge
Remarks:
Altitude:
(Current/Filed)
24,000ft
Speed:
(Current/Filed)
314kts
Departed: 16-Oct-20 03:12 PM
Arrived: 16-Oct-20 05:05 PM
Distance/Time
Traveled:
461nm/1:53
Distance/Time
To Go:
Arrived

Flight Plot

Page will automatically refresh every two minutes.

Flight plan parsing failed; only flown route is shown


Map Options




Map Legend


Flown Route
Filed Route
Departure Airport
Arrival Airport
Navaid (VOR, NDB)
Fix

Horizontal Profiles

Position Reports

Time Latitude Longitude Heading Altitude Ground
Speed
16-Oct-20 14:38 33.665687 -117.873688 218 60ft 0kts
16-Oct-20 14:39 33.665687 -117.873688 218 60ft 0kts
16-Oct-20 14:40 33.665687 -117.873688 218 60ft 0kts
16-Oct-20 14:41 33.665687 -117.873688 218 60ft 0kts
16-Oct-20 14:42 33.665687 -117.873688 218 60ft 0kts
16-Oct-20 14:43 33.665687 -117.873688 218 60ft 0kts
16-Oct-20 14:44 33.665687 -117.873688 218 60ft 0kts
16-Oct-20 14:45 33.665687 -117.873688 218 60ft 0kts
16-Oct-20 14:46 33.665687 -117.873688 218 60ft 0kts
16-Oct-20 14:47 33.665687 -117.873688 218 60ft 0kts
16-Oct-20 14:48 33.665687 -117.873688 218 60ft 0kts
16-Oct-20 14:50 33.665687 -117.873688 218 60ft 0kts
16-Oct-20 14:51 33.665687 -117.873688 218 60ft 0kts
16-Oct-20 14:52 33.665687 -117.873688 218 60ft 0kts
16-Oct-20 14:53 33.665687 -117.873688 218 60ft 0kts
16-Oct-20 14:54 33.665687 -117.873688 218 60ft 0kts
16-Oct-20 14:55 33.665687 -117.873688 218 60ft 0kts
16-Oct-20 14:56 33.665687 -117.873688 218 60ft 0kts
16-Oct-20 14:57 33.665687 -117.873688 218 60ft 0kts
16-Oct-20 14:58 33.665687 -117.873688 218 60ft 0kts
16-Oct-20 14:59 33.665687 -117.873688 218 60ft 0kts
16-Oct-20 15:00 33.665687 -117.873688 218 60ft 0kts
16-Oct-20 15:01 33.665687 -117.873688 218 60ft 0kts
16-Oct-20 15:02 33.665687 -117.873688 218 60ft 0kts
16-Oct-20 15:03 33.665687 -117.873688 218 60ft 0kts
16-Oct-20 15:04 33.666346 -117.873541 25 60ft 7kts
16-Oct-20 15:05 33.669513 -117.870492 45 60ft 18kts
16-Oct-20 15:06 33.672298 -117.867970 19 60ft 3kts
16-Oct-20 15:06 33.673922 -117.867194 20 60ft 12kts
16-Oct-20 15:08 33.678991 -117.864008 33 60ft 13kts
16-Oct-20 15:08 33.679829 -117.863569 319 60ft 0kts
16-Oct-20 15:10 33.679829 -117.863569 319 60ft 0kts
16-Oct-20 15:10 33.679895 -117.863657 305 60ft 3kts
16-Oct-20 15:11 33.679624 -117.866306 208 60ft 43kts
16-Oct-20 15:12 33.649563 -117.889370 211 1060ft 158kts
16-Oct-20 15:13 33.605184 -117.901969 189 2943ft 172kts
16-Oct-20 15:14 33.578169 -117.940952 261 4221ft 175kts
16-Oct-20 15:15 33.570981 -117.999545 262 5313ft 179kts
16-Oct-20 15:16 33.563741 -118.059245 262 6531ft 182kts
16-Oct-20 15:17 33.590429 -118.093103 6 7766ft 183kts
16-Oct-20 15:18 33.641384 -118.083232 8 9009ft 187kts
16-Oct-20 15:19 33.693259 -118.073071 9 10208ft 190kts
16-Oct-20 15:20 33.745796 -118.062411 10 11527ft 192kts
16-Oct-20 15:21 33.797791 -118.062199 333 12702ft 196kts
16-Oct-20 15:22 33.847586 -118.091637 335 13897ft 201kts
16-Oct-20 15:23 33.898521 -118.121007 335 15000ft 205kts
16-Oct-20 15:24 33.950572 -118.150981 334 15901ft 209kts
16-Oct-20 15:25 34.003607 -118.181558 334 16824ft 212kts
16-Oct-20 15:26 34.057393 -118.212611 334 17610ft 216kts
16-Oct-20 15:27 34.111860 -118.244096 334 18508ft 218kts
16-Oct-20 15:28 34.167581 -118.276359 334 19398ft 223kts
16-Oct-20 15:29 34.224010 -118.309067 334 20252ft 226kts
16-Oct-20 15:30 34.281142 -118.342242 334 21112ft 227kts
16-Oct-20 15:31 34.338399 -118.375546 334 21973ft 228kts
16-Oct-20 15:32 34.395532 -118.408821 334 22935ft 228kts
16-Oct-20 15:33 34.452832 -118.442251 334 23742ft 228kts
16-Oct-20 15:34 34.511724 -118.476662 334 24059ft 247kts
16-Oct-20 15:35 34.576002 -118.514286 334 24120ft 265kts
16-Oct-20 15:36 34.643888 -118.554085 334 24164ft 273kts
16-Oct-20 15:37 34.710323 -118.593978 332 24205ft 261kts
16-Oct-20 15:38 34.773978 -118.633772 332 24238ft 255kts
16-Oct-20 15:39 34.786196 -118.641408 332 24240ft 254kts
16-Oct-20 15:44 35.164326 -118.878959 332 24093ft 274kts
16-Oct-20 15:45 35.232075 -118.921777 332 24054ft 274kts
16-Oct-20 15:46 35.299856 -118.964694 332 24020ft 274kts
16-Oct-20 15:47 35.367575 -119.007657 332 23998ft 274kts
16-Oct-20 15:48 35.435393 -119.050764 332 23990ft 273kts
16-Oct-20 15:49 35.502835 -119.093714 332 23990ft 272kts
16-Oct-20 15:50 35.569921 -119.136513 332 23990ft 272kts
16-Oct-20 15:51 35.637257 -119.179557 332 23991ft 271kts
16-Oct-20 15:52 35.704159 -119.222405 332 23990ft 271kts
16-Oct-20 15:53 35.771159 -119.265402 332 23990ft 271kts
16-Oct-20 15:54 35.838157 -119.308479 332 23992ft 271kts
16-Oct-20 15:55 35.905232 -119.351688 332 23996ft 271kts
16-Oct-20 15:56 35.972237 -119.394936 332 23998ft 271kts
16-Oct-20 15:57 36.039242 -119.438265 332 23994ft 272kts
16-Oct-20 15:58 36.106177 -119.481636 332 23997ft 271kts
16-Oct-20 15:59 36.172930 -119.524973 332 23996ft 271kts
16-Oct-20 16:00 36.239616 -119.568349 332 23993ft 271kts
16-Oct-20 16:01 36.306297 -119.611806 332 23990ft 271kts
16-Oct-20 16:02 36.373032 -119.655385 332 23996ft 272kts
16-Oct-20 16:03 36.440636 -119.699618 332 23992ft 273kts
16-Oct-20 16:04 36.507628 -119.743537 332 23993ft 272kts
16-Oct-20 16:05 36.574485 -119.787455 332 23995ft 271kts
16-Oct-20 16:06 36.641084 -119.831288 332 23997ft 270kts
16-Oct-20 16:07 36.707400 -119.875023 331 23999ft 269kts
16-Oct-20 16:08 36.773753 -119.918869 331 24001ft 269kts
16-Oct-20 16:09 36.839749 -119.962567 331 24009ft 268kts
16-Oct-20 16:10 36.905701 -120.006321 331 24011ft 268kts
16-Oct-20 16:11 36.971683 -120.050182 331 24010ft 268kts
16-Oct-20 16:12 37.037389 -120.093942 330 24008ft 267kts
16-Oct-20 16:13 37.102847 -120.137626 330 24001ft 265kts
16-Oct-20 16:14 37.167686 -120.180980 330 24003ft 263kts
16-Oct-20 16:15 37.233239 -120.224918 330 24006ft 274kts
16-Oct-20 16:16 37.302283 -120.271273 330 24002ft 286kts
16-Oct-20 16:17 37.373334 -120.319076 330 24000ft 292kts
16-Oct-20 16:18 37.445976 -120.368015 330 24006ft 301kts
16-Oct-20 16:19 37.520340 -120.418252 330 24014ft 306kts
16-Oct-20 16:20 37.595800 -120.469364 330 24010ft 308kts
16-Oct-20 16:21 37.671540 -120.520783 330 24019ft 309kts
16-Oct-20 16:22 37.747253 -120.572307 330 24029ft 309kts
16-Oct-20 16:23 37.823010 -120.623982 330 24032ft 309kts
16-Oct-20 16:24 37.898874 -120.675852 330 24047ft 309kts
16-Oct-20 16:25 37.974550 -120.727706 330 24063ft 309kts
16-Oct-20 16:26 38.050473 -120.779872 330 24058ft 309kts
16-Oct-20 16:27 38.126083 -120.831939 330 24050ft 309kts
16-Oct-20 16:28 38.201877 -120.884256 330 24045ft 309kts
16-Oct-20 16:29 38.277372 -120.936491 330 24040ft 309kts
16-Oct-20 16:30 38.353114 -120.989022 330 24034ft 309kts
16-Oct-20 16:31 38.428683 -121.041631 330 24023ft 309kts
16-Oct-20 16:32 38.504298 -121.094264 330 24006ft 310kts
16-Oct-20 16:33 38.579904 -121.147076 330 23981ft 310kts
16-Oct-20 16:34 38.655447 -121.199977 330 23980ft 309kts
16-Oct-20 16:35 38.731109 -121.253092 330 23990ft 309kts
16-Oct-20 16:36 38.805368 -121.305358 330 23589ft 301kts
16-Oct-20 16:37 38.878694 -121.357085 330 22596ft 300kts
16-Oct-20 16:38 38.951873 -121.408826 330 21598ft 299kts
16-Oct-20 16:39 39.024551 -121.460316 330 20601ft 297kts
16-Oct-20 16:40 39.096276 -121.511260 330 19864ft 288kts
16-Oct-20 16:41 39.166006 -121.560935 330 19154ft 285kts
16-Oct-20 16:42 39.235728 -121.610696 330 18246ft 287kts
16-Oct-20 16:43 39.305897 -121.660910 330 17256ft 287kts
16-Oct-20 16:45 39.375427 -121.710777 330 16249ft 284kts
16-Oct-20 16:46 39.444077 -121.760109 331 15250ft 281kts
16-Oct-20 16:47 39.512300 -121.809247 331 14249ft 279kts
16-Oct-20 16:48 39.579904 -121.858075 331 13263ft 279kts
16-Oct-20 16:49 39.647726 -121.907131 331 12256ft 277kts
16-Oct-20 16:50 39.714769 -121.955738 331 11254ft 272kts
16-Oct-20 16:51 39.780638 -122.003639 332 10256ft 270kts
16-Oct-20 16:52 39.848478 -122.045308 342 9255ft 268kts
16-Oct-20 16:53 39.919793 -122.073666 345 8256ft 267kts
16-Oct-20 16:54 39.990837 -122.100119 344 7271ft 265kts
16-Oct-20 16:55 40.061781 -122.126467 343 6280ft 263kts
16-Oct-20 16:56 40.132173 -122.152762 344 5279ft 261kts
16-Oct-20 16:57 40.201916 -122.178544 343 4282ft 260kts
16-Oct-20 16:58 40.269216 -122.208463 325 3499ft 251kts
16-Oct-20 16:59 40.320670 -122.266403 316 3040ft 231kts
16-Oct-20 17:00 40.364624 -122.297603 0 2567ft 132kts
16-Oct-20 17:01 40.406838 -122.296253 359 2287ft 154kts
16-Oct-20 17:01 40.439918 -122.295589 2 1667ft 126kts
16-Oct-20 17:03 40.479124 -122.295188 1 997ft 117kts
16-Oct-20 17:03 40.505557 -122.294956 2 506ft 84kts
16-Oct-20 17:04 40.513946 -122.294985 332 506ft 13kts
16-Oct-20 17:05 40.514226 -122.295642 268 506ft 0kts
16-Oct-20 17:06 40.511513 -122.296298 178 506ft 16kts
16-Oct-20 17:07 40.508284 -122.297424 255 506ft 5kts
16-Oct-20 17:08 40.508542 -122.298995 12 506ft 0kts
16-Oct-20 17:09 40.508542 -122.298995 12 506ft 0kts
16-Oct-20 17:10 40.508542 -122.298995 12 506ft 0kts
16-Oct-20 17:11 40.508542 -122.298995 12 506ft 0kts
16-Oct-20 17:12 40.508542 -122.298995 12 506ft 0kts
16-Oct-20 17:13 40.508542 -122.298995 12 506ft 0kts
16-Oct-20 17:14 40.508542 -122.298995 12 506ft 0kts
16-Oct-20 17:15 40.508542 -122.298995 12 506ft 0kts
16-Oct-20 17:16 40.508542 -122.298995 12 506ft 0kts
16-Oct-20 17:17 40.508542 -122.298995 12 506ft 0kts
16-Oct-20 17:18 40.508542 -122.298995 12 506ft 0kts

Navigation Log

Ident Type
Flight plan parsing failed, navigation log unavailable